Time;durP1;ratioP1;P1;durP2;ratioP2;P2;SDS_P1;SDS_P2;PMS_P1;PMS_P2;Temp;Humidity;BMP_temperature;BMP_pressure;BME280_temperature;BME280_humidity;BME280_pressure;Samples;Min_cycle;Max_cycle;Signal;HPM_P1;HPM_P2
2022/05/15 00:02:59;;;;;;;7.28;3.70;;;;;;;14.52;82.73;100192.47;6224984;28;20121;-74
2022/05/15 00:06:03;;;;;;;8.68;3.85;;;;;;;14.50;84.29;100187.31;6207235;28;20056;-75
2022/05/15 00:09:04;;;;;;;5.38;3.25;;;;;;;14.47;82.22;100182.28;6223863;28;20050;-75
2022/05/15 00:12:06;;;;;;;6.63;3.22;;;;;;;14.42;82.54;100181.81;6224184;28;20080;-75
2022/05/15 00:15:07;;;;;;;5.63;3.60;;;;;;;14.38;80.86;100185.63;6223839;28;20092;-75
2022/05/15 00:18:09;;;;;;;5.80;3.55;;;;;;;14.35;81.39;100185.84;6224028;28;20058;-75
2022/05/15 00:21:11;;;;;;;5.53;3.53;;;;;;;14.30;81.76;100174.84;6225147;28;20038;-75
2022/05/15 00:24:12;;;;;;;7.30;3.53;;;;;;;14.30;82.24;100185.34;6224189;28;20521;-75
2022/05/15 00:27:12;;;;;;;4.90;3.60;;;;;;;14.26;81.84;100184.72;6224951;28;20073;-75
2022/05/15 00:30:15;;;;;;;7.72;4.10;;;;;;;14.23;79.83;100187.59;6207402;28;20056;-73
2022/05/15 00:33:17;;;;;;;7.55;3.67;;;;;;;14.21;82.64;100180.78;6240167;28;20506;-75
2022/05/15 00:36:18;;;;;;;9.37;3.70;;;;;;;14.17;81.03;100176.72;6225015;28;20046;-75
2022/05/15 00:39:19;;;;;;;6.50;3.63;;;;;;;14.17;82.25;100176.72;6207440;28;20119;-75
2022/05/15 00:42:20;;;;;;;7.28;3.42;;;;;;;14.12;80.44;100171.78;6190986;28;20477;-75
2022/05/15 00:45:22;;;;;;;5.97;3.37;;;;;;;14.05;79.54;100170.59;6239294;28;20563;-75
2022/05/15 00:48:23;;;;;;;7.05;3.45;;;;;;;13.99;80.70;100163.16;6223330;28;20507;-75
2022/05/15 00:51:32;;;;;;;7.40;3.55;;;;;;;13.96;79.91;100168.63;6207195;28;20065;-74
2022/05/15 00:54:54;;;;;;;7.03;3.20;;;;;;;13.96;82.47;100161.63;6223000;28;20073;-75
2022/05/15 00:57:59;;;;;;;6.22;3.45;;;;;;;13.91;77.58;100161.94;6224418;28;20054;-75
2022/05/15 01:01:02;;;;;;;6.97;3.65;;;;;;;13.91;81.15;100163.72;6223151;28;20058;-75
2022/05/15 01:04:04;;;;;;;8.57;3.60;;;;;;;13.89;79.49;100158.59;6222922;28;20529;-75
2022/05/15 01:07:05;;;;;;;28.48;6.72;;;;;;;13.85;79.38;100158.94;6206683;28;20565;-75
2022/05/15 01:10:08;;;;;;;7.10;3.47;;;;;;;13.80;79.78;100159.28;6206657;28;20399;-75
2022/05/15 01:13:10;;;;;;;7.85;3.17;;;;;;;13.81;81.62;100163.56;6222766;28;20042;-75
2022/05/15 01:16:13;;;;;;;7.43;2.97;;;;;;;13.79;82.78;100156.75;6222962;28;20045;-75
2022/05/15 01:19:14;;;;;;;;;;;;;;;13.75;83.77;100157.91;6223411;28;20064;-75
2022/05/15 01:22:15;;;;;;;3.47;3.07;;;;;;;13.70;82.84;100155.63;6224119;28;19980;-75
2022/05/15 01:25:19;;;;;;;8.73;3.22;;;;;;;13.66;80.52;100162.06;6222361;28;20072;-75
2022/05/15 01:28:23;;;;;;;7.68;3.13;;;;;;;13.63;80.49;100165.75;6222264;28;20049;-75
2022/05/15 01:31:25;;;;;;;8.57;3.70;;;;;;;13.61;81.22;100165.00;6223820;28;20466;-75
2022/05/15 01:34:26;;;;;;;;;;;;;;;13.58;81.93;100169.63;6222635;28;20056;-75
2022/05/15 01:37:27;;;;;;;6.13;3.30;;;;;;;13.54;82.12;100166.38;6223890;28;19925;-75
2022/05/15 01:40:28;;;;;;;7.65;3.10;;;;;;;13.51;80.36;100174.47;6206181;28;20482;-74
2022/05/15 01:43:29;;;;;;;6.03;3.23;;;;;;;13.47;79.82;100173.84;6223493;28;20403;-75
2022/05/15 01:46:30;;;;;;;6.10;3.20;;;;;;;13.49;79.80;100179.81;6205991;28;20049;-75
2022/05/15 01:49:31;;;;;;;9.60;3.30;;;;;;;13.44;80.68;100173.22;6221689;28;20058;-75
2022/05/15 01:52:31;;;;;;;8.15;3.30;;;;;;;13.44;80.50;100188.94;6221572;28;20041;-74
2022/05/15 01:55:32;;;;;;;5.43;3.40;;;;;;;13.44;80.07;100184.53;6205265;28;20428;-75
2022/05/15 01:58:33;;;;;;;5.55;3.00;;;;;;;13.41;78.93;100183.94;6220988;28;20441;-75
2022/05/15 02:01:35;;;;;;;15.05;3.72;;;;;;;13.36;80.13;100175.56;6223215;28;20046;-75
2022/05/15 02:04:36;;;;;;;7.03;3.08;;;;;;;13.38;79.62;100189.38;6205745;28;20046;-75
2022/05/15 02:07:37;;;;;;;9.80;3.60;;;;;;;13.33;81.97;100187.09;6223232;28;20050;-74
2022/05/15 02:10:38;;;;;;;9.47;3.50;;;;;;;13.28;81.03;100187.41;6205755;28;20054;-74
2022/05/15 02:13:38;;;;;;;6.53;3.60;;;;;;;13.30;83.04;100185.53;6205550;28;20038;-74
2022/05/15 02:16:39;;;;;;;4.53;3.22;;;;;;;13.24;85.03;100185.06;6221723;28;20049;-75
2022/05/15 02:19:40;;;;;;;8.15;3.15;;;;;;;13.18;86.23;100181.13;6205608;28;20057;-75
2022/05/15 02:22:41;;;;;;;5.65;3.42;;;;;;;13.17;85.20;100189.09;6221877;28;20061;-75
2022/05/15 02:25:42;;;;;;;6.47;3.40;;;;;;;13.14;84.76;100189.28;6205309;28;20052;-75
2022/05/15 02:28:43;;;;;;;4.95;3.03;;;;;;;13.09;84.96;100184.38;6221876;28;20317;-74
2022/05/15 02:31:44;;;;;;;5.85;3.35;;;;;;;13.14;85.58;100191.91;6221828;28;20037;-75
2022/05/15 02:34:45;;;;;;;5.20;3.30;;;;;;;13.02;85.00;100189.19;6221387;28;20475;-75
2022/05/15 02:37:47;;;;;;;5.45;3.33;;;;;;;12.92;86.54;100182.91;6205495;28;20125;-75
2022/05/15 02:40:48;;;;;;;6.05;3.00;;;;;;;12.92;85.22;100187.31;6221444;28;20123;-74
2022/05/15 02:43:50;;;;;;;7.07;3.70;;;;;;;12.90;89.50;100185.63;6205346;28;20053;-74
2022/05/15 02:46:51;;;;;;;7.87;3.40;;;;;;;12.87;89.45;100187.66;6204895;28;20144;-73
2022/05/15 02:53:11;;;;;;;8.02;3.13;;;;;;;12.84;88.66;100196.53;6222592;28;20038;-73
2022/05/15 02:56:18;;;;;;;6.78;3.10;;;;;;;12.84;87.88;100188.69;6230120;28;20500;-73
2022/05/15 02:59:19;;;;;;;7.05;3.13;;;;;;;12.81;90.39;100198.53;6278880;28;20486;-74
2022/05/15 03:02:19;;;;;;;7.50;3.60;;;;;;;12.72;91.80;100193.91;6232086;28;20064;-73
2022/05/15 03:05:21;;;;;;;5.78;3.08;;;;;;;12.66;86.36;100200.41;6237709;28;20141;-73
2022/05/15 03:08:22;;;;;;;5.10;3.33;;;;;;;12.63;90.96;100208.47;6205182;28;20042;-73
2022/05/15 03:11:23;;;;;;;4.70;3.25;;;;;;;12.59;86.78;100214.84;6226205;28;20151;-73
2022/05/15 03:14:24;;;;;;;7.07;3.78;;;;;;;12.58;90.23;100205.31;6209012;28;20521;-73
2022/05/15 03:17:26;;;;;;;5.38;3.60;;;;;;;12.54;90.53;100215.16;6226641;28;20045;-73
2022/05/15 03:20:27;;;;;;;5.27;3.77;;;;;;;12.52;91.95;100214.44;6209150;28;20061;-73
2022/05/15 03:23:28;;;;;;;9.68;3.58;;;;;;;12.52;94.09;100216.19;6239266;28;20039;-73
2022/05/15 03:26:31;;;;;;;6.68;3.78;;;;;;;12.52;90.83;100214.44;6250759;28;20041;-73
2022/05/15 03:29:31;;;;;;;7.57;3.70;;;;;;;12.53;93.30;100213.47;6251085;28;20045;-73
2022/05/15 03:32:33;;;;;;;6.78;4.50;;;;;;;12.62;92.90;100225.97;6249950;28;20099;-74
2022/05/15 03:35:34;;;;;;;35.83;13.43;;;;;;;12.64;88.83;100228.47;6233220;28;20129;-75
2022/05/15 03:38:35;;;;;;;24.27;11.30;;;;;;;12.66;86.96;100221.34;6233212;28;20438;-75
2022/05/15 03:41:37;;;;;;;13.30;7.60;;;;;;;12.60;86.49;100229.59;6250111;28;20056;-75
2022/05/15 03:44:38;;;;;;;14.98;8.50;;;;;;;12.70;89.23;100230.66;6249160;28;20060;-75
2022/05/15 03:47:47;;;;;;;10.50;6.18;;;;;;;12.68;87.22;100236.03;6249230;28;20056;-75
2022/05/15 03:50:48;;;;;;;14.90;5.80;;;;;;;12.60;85.77;100233.06;6232923;28;20088;-75
2022/05/15 03:53:48;;;;;;;9.25;5.53;;;;;;;12.66;86.23;100231.81;6227816;28;20490;-75
2022/05/15 03:56:52;;;;;;;15.05;5.30;;;;;;;12.69;88.15;100229.00;6208518;28;20066;-75
2022/05/15 03:59:53;;;;;;;12.60;5.03;;;;;;;12.77;92.37;100241.59;6226042;28;20050;-75
2022/05/15 04:02:54;;;;;;;12.48;5.03;;;;;;;12.74;86.64;100241.78;6242444;28;20180;-74
2022/05/15 04:05:55;;;;;;;15.73;7.35;;;;;;;12.78;85.60;100241.47;6249217;28;20046;-75
2022/05/15 04:08:56;;;;;;;11.02;5.82;;;;;;;12.67;85.21;100249.22;6265390;28;20463;-73
2022/05/15 04:11:58;;;;;;;8.98;5.00;;;;;;;12.78;86.59;100258.97;6232514;28;20049;-73
2022/05/15 04:14:58;;;;;;;14.10;5.53;;;;;;;12.78;85.58;100261.56;6249962;28;20087;-73
2022/05/15 04:17:59;;;;;;;14.77;6.55;;;;;;;12.81;84.41;100262.22;6232250;28;20072;-73
2022/05/15 04:21:00;;;;;;;9.30;4.50;;;;;;;12.94;82.46;100269.25;6236492;28;20046;-73
2022/05/15 04:24:01;;;;;;;18.77;8.63;;;;;;;13.09;81.56;100261.19;6244374;28;20425;-73
2022/05/15 04:27:03;;;;;;;58.42;22.60;;;;;;;13.21;82.80;100263.91;6248411;28;20425;-73
2022/05/15 04:30:04;;;;;;;86.72;34.80;;;;;;;13.33;80.28;100265.72;6232168;28;20425;-73
2022/05/15 04:33:05;;;;;;;45.15;19.25;;;;;;;13.49;79.96;100263.72;6218196;28;20050;-73
2022/05/15 04:36:06;;;;;;;22.30;8.38;;;;;;;13.65;78.58;100260.00;6207423;28;20053;-73
2022/05/15 04:39:08;;;;;;;9.00;5.20;;;;;;;13.80;78.97;100258.94;6223660;28;20053;-74
2022/05/15 04:42:10;;;;;;;7.03;3.70;;;;;;;14.00;78.60;100269.75;6224872;28;20052;-73
2022/05/15 04:45:11;;;;;;;9.88;3.33;;;;;;;14.15;78.90;100273.09;6224623;28;20481;-73
2022/05/15 04:48:12;;;;;;;9.87;3.80;;;;;;;14.29;78.50;100273.75;6224310;28;20131;-73
2022/05/15 04:51:13;;;;;;;6.53;3.67;;;;;;;14.44;77.64;100268.34;6224616;28;20080;-73
2022/05/15 04:54:14;;;;;;;8.63;3.85;;;;;;;14.58;74.52;100276.06;6231861;28;20461;-73
2022/05/15 04:57:15;;;;;;;6.30;3.47;;;;;;;14.75;75.18;100281.84;6231112;28;20083;-73
2022/05/15 05:00:17;;;;;;;10.35;3.75;;;;;;;14.87;77.53;100283.56;6247366;28;20132;-73
2022/05/15 05:03:19;;;;;;;8.55;3.33;;;;;;;15.01;78.36;100283.34;6231048;28;20077;-74
2022/05/15 05:06:20;;;;;;;8.20;3.47;;;;;;;15.16;74.29;100291.00;6248765;28;20049;-73
2022/05/15 05:09:21;;;;;;;9.45;3.35;;;;;;;15.35;75.33;100287.81;6231190;28;20080;-73
2022/05/15 05:12:22;;;;;;;6.15;3.47;;;;;;;15.50;73.41;100290.09;6247432;28;20482;-73
2022/05/15 05:15:22;;;;;;;5.70;3.28;;;;;;;15.65;70.64;100287.22;6233980;28;20100;-73
2022/05/15 05:18:23;;;;;;;12.85;3.75;;;;;;;15.73;69.35;100281.34;6206885;28;20055;-73
2022/05/15 05:21:24;;;;;;;7.75;3.20;;;;;;;15.91;69.54;100288.63;6222765;28;20076;-73
2022/05/15 05:24:25;;;;;;;8.53;3.43;;;;;;;16.04;68.15;100293.78;6206506;28;20053;-73
2022/05/15 05:27:26;;;;;;;8.00;3.33;;;;;;;16.14;67.93;100288.56;6234080;28;20049;-73
2022/05/15 05:30:27;;;;;;;8.73;2.70;;;;;;;16.33;65.97;100295.84;6246913;28;20521;-74
2022/05/15 05:33:28;;;;;;;8.35;3.30;;;;;;;16.52;65.01;100296.00;6230021;28;20042;-73
2022/05/15 05:36:29;;;;;;;8.05;3.55;;;;;;;16.66;63.91;100302.78;6229942;28;20053;-73
2022/05/15 05:39:30;;;;;;;8.02;2.63;;;;;;;16.77;63.31;100298.41;6214277;28;20062;-73
2022/05/15 05:42:31;;;;;;;7.78;3.08;;;;;;;16.96;63.48;100303.00;6247892;28;20103;-74
2022/05/15 05:45:32;;;;;;;5.60;2.85;;;;;;;17.06;63.09;100296.84;6246768;28;20461;-74
2022/05/15 05:48:33;;;;;;;7.90;3.60;;;;;;;17.10;63.02;100303.50;6229717;28;20119;-73
2022/05/15 05:51:34;;;;;;;5.10;3.13;;;;;;;17.21;63.16;100304.41;6246853;28;20155;-73
2022/05/15 05:54:34;;;;;;;7.90;3.30;;;;;;;17.54;63.49;100298.03;6246607;28;20053;-74
2022/05/15 05:57:36;;;;;;;7.65;3.20;;;;;;;17.83;62.43;100302.63;6213912;28;20049;-73
2022/05/15 06:00:38;;;;;;;6.78;2.72;;;;;;;18.06;58.79;100297.97;6247639;28;20049;-73
2022/05/15 06:06:58;;;;;;;8.48;2.60;;;;;;;18.12;53.94;100295.63;6247337;28;20129;-74
2022/05/15 06:10:01;;;;;;;4.88;2.50;;;;;;;18.06;51.79;100300.63;6246090;28;20053;-74
2022/05/15 06:13:02;;;;;;;6.50;2.40;;;;;;;18.23;52.55;100301.75;6245833;28;20041;-73
2022/05/15 06:16:03;;;;;;;3.35;2.40;;;;;;;18.22;51.43;100302.72;6247061;28;20050;-73
2022/05/15 06:19:04;;;;;;;8.43;2.55;;;;;;;18.49;51.03;100297.59;6246028;28;20045;-74
2022/05/15 06:22:05;;;;;;;6.65;2.50;;;;;;;18.69;51.27;100293.13;6229862;28;20072;-73
2022/05/15 06:25:06;;;;;;;10.45;2.38;;;;;;;18.76;49.73;100303.13;6246133;28;20053;-73
2022/05/15 06:28:07;;;;;;;6.80;2.63;;;;;;;18.78;49.26;100299.41;6228227;28;20543;-72
2022/05/15 06:31:08;;;;;;;7.75;2.83;;;;;;;19.03;50.28;100291.88;6245743;28;20145;-74
2022/05/15 06:34:09;;;;;;;5.47;2.20;;;;;;;19.35;53.02;100306.53;6279096;28;20552;-73
2022/05/15 06:37:10;;;;;;;7.20;2.97;;;;;;;19.48;49.61;100302.63;6246352;28;20041;-75
2022/05/15 06:40:13;;;;;;;9.10;2.50;;;;;;;19.56;48.46;100301.88;6229591;28;20087;-75
2022/05/15 06:43:14;;;;;;;7.00;2.70;;;;;;;19.86;46.63;100307.91;6262622;28;20065;-75
2022/05/15 06:46:15;;;;;;;5.63;2.40;;;;;;;20.00;47.31;100309.22;6250671;28;20053;-75
2022/05/15 06:49:16;;;;;;;6.43;2.60;;;;;;;19.91;47.11;100309.13;6250610;28;20104;-75
2022/05/15 06:52:17;;;;;;;7.53;2.90;;;;;;;19.92;48.49;100310.78;6250591;28;20498;-74
2022/05/15 06:55:20;;;;;;;9.77;2.80;;;;;;;20.05;47.15;100318.38;6251766;28;20041;-75
2022/05/15 06:58:22;;;;;;;4.93;2.88;;;;;;;20.47;46.35;100320.47;6250497;28;20379;-75
2022/05/15 07:01:24;;;;;;;7.10;2.53;;;;;;;20.65;47.05;100323.16;6267301;28;20064;-76
2022/05/15 07:04:24;;;;;;;10.48;2.50;;;;;;;21.08;48.16;100326.78;6233885;28;20071;-75
2022/05/15 07:07:26;;;;;;;8.73;2.47;;;;;;;21.27;44.33;100319.63;6229762;28;20486;-75
2022/05/15 07:10:26;;;;;;;6.03;2.63;;;;;;;21.61;44.43;100327.63;6225606;28;20049;-75
2022/05/15 07:13:27;;;;;;;6.83;2.63;;;;;;;21.96;41.61;100322.31;6225190;28;20061;-75
2022/05/15 07:16:33;;;;;;;8.98;2.35;;;;;;;22.31;42.04;100327.41;6242164;28;20634;-76
2022/05/15 07:19:34;;;;;;;8.40;2.60;;;;;;;22.07;38.50;100325.50;6225046;28;20112;-75
2022/05/15 07:22:36;;;;;;;9.50;2.70;;;;;;;22.35;41.60;100330.56;6242109;28;20057;-75
2022/05/15 07:25:37;;;;;;;;;;;;;;;22.47;38.47;100334.59;6225908;28;20050;-75
2022/05/15 07:28:38;;;;;;;10.95;2.63;;;;;;;22.07;41.06;100335.28;6226648;28;19925;-75
2022/05/15 07:31:40;;;;;;;6.90;2.43;;;;;;;22.40;39.11;100330.91;6226659;28;20475;-76
2022/05/15 07:34:41;;;;;;;5.75;2.50;;;;;;;22.68;37.51;100327.97;6226387;28;20057;-75
2022/05/15 07:37:42;;;;;;;5.50;2.33;;;;;;;22.94;35.84;100331.28;6241235;28;20074;-75
2022/05/15 07:40:43;;;;;;;9.63;2.20;;;;;;;22.78;36.93;100336.59;6224296;28;20053;-76
2022/05/15 07:43:44;;;;;;;7.97;2.35;;;;;;;23.18;36.60;100334.09;6224463;28;20050;-76
2022/05/15 07:46:45;;;;;;;7.83;2.40;;;;;;;23.46;35.18;100338.03;6225288;28;20046;-76
2022/05/15 07:49:46;;;;;;;10.90;2.47;;;;;;;23.11;33.79;100337.44;6240171;28;20061;-76
2022/05/15 07:52:48;;;;;;;8.50;2.27;;;;;;;23.43;36.21;100333.06;6224167;28;20496;-76
2022/05/15 07:55:48;;;;;;;11.65;2.45;;;;;;;23.36;36.70;100334.75;6222585;28;20291;-76
2022/05/15 07:58:49;;;;;;;6.47;2.40;;;;;;;22.33;35.86;100329.91;6240427;28;20100;-76
2022/05/15 08:01:55;;;;;;;10.75;3.25;;;;;;;22.62;36.33;100337.41;6239285;28;20492;-76
2022/05/15 08:08:15;;;;;;;9.27;2.47;;;;;;;23.59;35.47;100337.50;6248336;28;20096;-76
2022/05/15 08:11:16;;;;;;;10.77;2.60;;;;;;;23.57;35.71;100344.81;6236169;28;20046;-76
2022/05/15 08:14:18;;;;;;;10.27;2.88;;;;;;;23.44;34.20;100337.38;6241308;28;20060;-76
2022/05/15 08:17:18;;;;;;;8.52;2.60;;;;;;;23.88;34.83;100338.75;6223547;28;20049;-76
2022/05/15 08:23:44;;;;;;;8.40;2.22;;;;;;;23.41;37.78;100331.56;6209504;28;20057;-75
2022/05/15 08:26:45;;;;;;;17.52;2.85;;;;;;;23.40;34.90;100333.41;6229006;28;20076;-77
2022/05/15 08:29:46;;;;;;;15.88;3.15;;;;;;;23.45;34.05;100335.53;6264262;28;20054;-75
2022/05/15 08:32:51;;;;;;;9.63;2.43;;;;;;;23.49;34.09;100334.19;6247787;28;20044;-75
2022/05/15 08:35:53;;;;;;;8.13;2.35;;;;;;;23.84;33.17;100330.28;6231703;28;20049;-76
2022/05/15 08:38:54;;;;;;;;;;;;;;;23.52;33.33;100337.38;6247952;28;20038;-77
2022/05/15 08:42:18;;;;;;;6.07;2.33;;;;;;;23.73;35.38;100339.44;6230857;28;20371;-75
2022/05/15 08:45:24;;;;;;;6.88;2.65;;;;;;;24.53;35.92;100335.75;6248542;28;20043;-76
2022/05/15 08:48:26;;;;;;;6.53;2.03;;;;;;;24.34;32.62;100331.69;6247010;28;20050;-76
2022/05/15 08:51:30;;;;;;;9.07;2.15;;;;;;;24.35;31.84;100327.19;6273550;28;20053;-77
2022/05/15 08:54:36;;;;;;;6.63;2.17;;;;;;;24.76;32.58;100337.56;6253279;28;20061;-76
2022/05/15 08:57:41;;;;;;;8.20;2.30;;;;;;;25.03;31.28;100332.69;6234227;28;20494;-76
2022/05/15 09:00:50;;;;;;;8.82;2.40;;;;;;;24.44;31.31;100330.59;6230015;28;20053;-77
2022/05/15 09:03:52;;;;;;;7.63;2.47;;;;;;;24.86;32.56;100332.00;6246716;28;20054;-76
2022/05/15 09:07:17;;;;;;;5.68;2.17;;;;;;;25.33;33.66;100330.91;6262802;28;20509;-76
2022/05/15 09:10:32;;;;;;;5.75;2.53;;;;;;;25.68;32.17;100341.88;6247618;28;20104;-74
2022/05/15 09:13:39;;;;;;;9.23;3.30;;;;;;;25.52;31.91;100335.69;6222688;28;20060;-74
2022/05/15 09:16:52;;;;;;;4.63;2.40;;;;;;;25.91;32.43;100331.91;6255603;28;20050;-74
2022/05/15 09:19:56;;;;;;;5.80;2.03;;;;;;;25.95;29.45;100339.59;6231324;28;20121;-74
2022/05/15 09:23:03;;;;;;;5.68;2.20;;;;;;;25.43;30.54;100338.63;6218005;28;20049;-74
2022/05/15 09:26:22;;;;;;;8.25;2.97;;;;;;;24.11;30.57;100329.00;6223011;28;20398;-75
2022/05/15 09:29:28;;;;;;;4.40;2.03;;;;;;;24.97;30.79;100336.06;6242870;28;20429;-75
2022/05/15 09:32:54;;;;;;;4.18;2.22;;;;;;;25.54;30.58;100330.19;6229815;28;20564;-74
2022/05/15 09:36:20;;;;;;;6.15;2.10;;;;;;;25.70;30.86;100338.00;6245975;28;20073;-74
2022/05/15 09:39:25;;;;;;;5.75;2.22;;;;;;;26.24;31.58;100331.47;6229400;28;20059;-74
2022/05/15 09:45:55;;;;;;;11.02;2.45;;;;;;;27.10;31.64;100319.91;6245739;28;20096;-73
2022/05/15 09:49:17;;;;;;;5.65;2.08;;;;;;;27.16;29.59;100326.31;6212957;28;20061;-73
2022/05/15 09:52:35;;;;;;;5.93;2.20;;;;;;;26.27;30.82;100316.88;6229401;28;20298;-74
2022/05/15 09:55:36;;;;;;;12.30;2.47;;;;;;;25.85;31.33;100315.78;6245797;28;20081;-74
2022/05/15 09:58:51;;;;;;;7.18;2.40;;;;;;;26.61;31.06;100313.56;6244918;28;20042;-73
2022/05/15 10:02:02;;;;;;;8.68;2.42;;;;;;;26.99;29.50;100309.72;6245780;28;20056;-73
2022/05/15 10:05:12;;;;;;;6.93;2.20;;;;;;;26.94;29.71;100316.50;6245494;28;20140;-74
2022/05/15 10:08:27;;;;;;;11.20;2.67;;;;;;;26.83;29.42;100309.00;6228737;28;20069;-74
2022/05/15 10:11:28;;;;;;;6.47;2.17;;;;;;;26.62;29.93;100301.00;6244868;28;20084;-73
2022/05/15 10:14:37;;;;;;;8.38;2.80;;;;;;;26.08;30.01;100310.31;6228879;28;20122;-73
2022/05/15 10:17:50;;;;;;;9.60;2.20;;;;;;;25.90;29.69;100310.72;6246668;28;20081;-73
2022/05/15 10:20:52;;;;;;;7.07;2.42;;;;;;;26.44;28.74;100299.59;6249743;28;20062;-74
2022/05/15 10:23:58;;;;;;;5.47;2.30;;;;;;;26.36;29.51;100298.84;6251806;28;20099;-74
2022/05/15 10:27:10;;;;;;;5.43;2.10;;;;;;;26.77;29.29;100303.59;6250344;28;20052;-76
2022/05/15 10:30:21;;;;;;;7.97;2.60;;;;;;;27.40;30.58;100304.47;6233800;28;20107;-77
2022/05/15 10:33:22;;;;;;;5.75;2.10;;;;;;;27.66;28.09;100302.97;6250546;28;20107;-77
2022/05/15 10:36:24;;;;;;;;;;;;;;;27.60;29.51;100293.84;6218005;28;20049;-77
2022/05/15 10:39:49;;;;;;;5.00;2.38;;;;;;;25.68;30.03;100296.47;6251473;28;19925;-76
2022/05/15 10:43:09;;;;;;;8.48;2.35;;;;;;;26.01;29.69;100301.41;6249967;28;20122;-76
2022/05/15 10:46:34;;;;;;;7.07;2.15;;;;;;;26.74;30.46;100294.09;6250096;28;20049;-74
2022/05/15 10:49:56;;;;;;;6.28;2.10;;;;;;;27.04;28.39;100289.38;6249864;28;20144;-74
2022/05/15 10:52:56;;;;;;;5.45;2.00;;;;;;;27.61;28.00;100287.44;6248433;28;20049;-74
2022/05/15 11:00:00;;;;;;;;;;;;;;;26.97;28.06;100285.81;6234139;28;20057;-74
2022/05/15 11:03:04;;;;;;;6.30;2.22;;;;;;;26.41;28.63;100281.22;6249816;28;19986;-74
2022/05/15 11:06:17;;;;;;;5.70;1.83;;;;;;;25.96;28.87;100282.41;6233221;28;20049;-74
2022/05/15 11:09:32;;;;;;;6.30;2.22;;;;;;;26.79;28.49;100275.63;6249461;28;20052;-74
2022/05/15 11:12:45;;;;;;;8.25;2.72;;;;;;;27.59;29.73;100278.78;6250849;28;20100;-74
2022/05/15 11:16:22;;;;;;;6.72;2.10;;;;;;;28.26;27.56;100271.78;6232827;28;20053;-77
2022/05/15 11:19:53;;;;;;;6.22;2.20;;;;;;;28.23;28.48;100272.22;6250794;28;20041;-77
2022/05/15 11:23:14;;;;;;;12.68;2.10;;;;;;;28.66;27.90;100265.66;6237096;28;20050;-77
2022/05/15 11:26:33;;;;;;;6.20;2.10;;;;;;;29.06;26.34;100263.75;6249090;28;20049;-77
2022/05/15 11:29:41;;;;;;;5.82;2.00;;;;;;;28.17;26.08;100267.66;6249777;28;20037;-77
2022/05/15 11:32:44;;;;;;;7.05;2.08;;;;;;;28.86;28.02;100260.28;6248887;28;20053;-77
2022/05/15 11:36:21;;;;;;;7.75;2.60;;;;;;;27.88;26.59;100256.25;6232610;28;20148;-77
2022/05/15 11:39:26;;;;;;;5.78;2.08;;;;;;;28.62;27.44;100264.41;6207166;28;20053;-77
2022/05/15 11:42:27;;;;;;;4.22;2.20;;;;;;;28.86;25.47;100255.72;6232377;28;20056;-76
2022/05/15 11:45:29;;;;;;;5.60;2.00;;;;;;;28.77;26.65;100253.47;6248663;28;20054;-76
2022/05/15 11:48:39;;;;;;;6.57;2.10;;;;;;;27.95;26.36;100250.09;6248432;28;20119;-77
2022/05/15 11:51:42;;;;;;;3.67;1.80;;;;;;;27.96;25.64;100241.81;6248431;28;20174;-77
2022/05/15 11:54:49;;;;;;;7.63;2.50;;;;;;;26.95;27.74;100245.03;6248514;28;20414;-76
2022/05/15 11:57:50;;;;;;;3.75;1.98;;;;;;;26.65;28.51;100236.41;6248394;28;20060;-77
2022/05/15 12:01:35;;;;;;;4.53;1.98;;;;;;;25.62;29.23;100239.25;6215690;28;20464;-76
2022/05/15 12:04:36;;;;;;;7.03;2.42;;;;;;;27.26;27.08;100236.63;6227880;28;20046;-77
2022/05/15 12:07:52;;;;;;;5.22;1.90;;;;;;;27.69;26.97;100238.22;6248014;28;20410;-77
2022/05/15 12:10:58;;;;;;;5.50;2.10;;;;;;;27.88;25.99;100228.59;6249374;28;20050;-77
2022/05/15 12:14:29;;;;;;;9.82;2.05;;;;;;;28.34;27.05;100234.03;6231523;28;20138;-77
2022/05/15 12:17:34;;;;;;;7.53;2.10;;;;;;;28.24;27.06;100232.81;6247910;28;20136;-77
2022/05/15 12:20:38;;;;;;;4.68;2.00;;;;;;;28.48;26.83;100234.88;6247887;28;20107;-77
2022/05/15 12:24:27;;;;;;;9.38;1.83;;;;;;;28.59;25.62;100230.75;6247780;28;20056;-77
2022/05/15 12:27:10;;;;;;;3.15;1.63;;;;;;;28.66;25.48;100223.56;6247517;28;20045;-77
2022/05/15 12:30:18;;;;;;;4.93;1.90;;;;;;;27.72;26.86;100216.38;6231234;28;20057;-77
2022/05/15 12:33:27;;;;;;;6.78;1.60;;;;;;;28.36;25.87;100217.75;6231040;28;20053;-77
2022/05/15 12:36:41;;;;;;;8.98;1.90;;;;;;;28.63;27.61;100215.06;6214724;28;20052;-77
2022/05/15 12:39:46;;;;;;;7.93;1.83;;;;;;;27.84;25.88;100214.75;6231014;28;20068;-77
2022/05/15 12:42:48;;;;;;;5.55;1.88;;;;;;;28.14;24.56;100206.38;6246648;28;20060;-76
2022/05/15 12:45:49;;;;;;;4.03;1.77;;;;;;;28.02;25.45;100202.66;6230475;28;20434;-76
2022/05/15 12:48:50;;;;;;;7.18;1.88;;;;;;;27.89;25.45;100187.38;6241322;28;20053;-77
2022/05/15 12:51:50;;;;;;;11.43;1.88;;;;;;;27.73;25.88;100192.03;6263593;28;20053;-77
2022/05/15 12:54:58;;;;;;;4.45;2.08;;;;;;;28.12;26.61;100185.13;6227951;28;20050;-77
2022/05/15 12:58:05;;;;;;;6.00;2.05;;;;;;;28.51;27.69;100196.91;6222383;28;20077;-76
2022/05/15 13:01:06;;;;;;;4.95;1.80;;;;;;;27.60;25.08;100189.34;6222351;28;20050;-76
2022/05/15 13:04:19;;;;;;;7.15;1.90;;;;;;;26.99;25.69;100181.22;6203898;28;20050;-76
2022/05/15 13:07:29;;;;;;;9.07;1.90;;;;;;;27.12;26.03;100178.63;6222408;28;20096;-76
2022/05/15 13:10:32;;;;;;;4.85;1.70;;;;;;;26.28;26.62;100185.66;6223400;28;20443;-76
2022/05/15 13:13:37;;;;;;;5.22;1.65;;;;;;;26.50;26.35;100180.25;6222167;28;20073;-76
2022/05/15 13:16:44;;;;;;;8.40;1.45;;;;;;;26.45;25.10;100180.03;6222216;28;20276;-76
2022/05/15 13:19:48;;;;;;;10.43;1.90;;;;;;;25.91;27.64;100184.09;6222048;28;20050;-76
2022/05/15 13:22:51;;;;;;;5.20;1.92;;;;;;;25.84;27.94;100175.13;6221970;28;20494;-77
2022/05/15 13:25:54;;;;;;;5.72;2.10;;;;;;;25.91;27.91;100173.41;6205686;28;20058;-77
2022/05/15 13:29:00;;;;;;;6.95;1.83;;;;;;;25.84;28.39;100178.66;6254641;28;20088;-77
2022/05/15 13:32:02;;;;;;;7.07;1.88;;;;;;;26.03;27.49;100168.38;6221670;28;20054;-76
2022/05/15 13:35:08;;;;;;;2.78;1.80;;;;;;;26.23;28.18;100172.06;6221941;28;20474;-76
2022/05/15 13:38:24;;;;;;;4.55;2.03;;;;;;;25.89;27.80;100162.03;6221667;28;20521;-77
2022/05/15 13:44:50;;;;;;;4.43;1.60;;;;;;;26.06;27.83;100160.78;6254642;28;20058;-76
2022/05/15 13:48:04;;;;;;;4.07;1.60;;;;;;;26.06;26.82;100170.66;6223549;28;20049;-76
2022/05/15 13:51:04;;;;;;;9.95;1.77;;;;;;;26.39;27.20;100157.53;6229006;28;20057;-76
2022/05/15 13:54:13;;;;;;;6.75;1.80;;;;;;;26.06;27.59;100165.31;6237150;28;20045;-76
2022/05/15 13:57:14;;;;;;;5.95;1.75;;;;;;;25.94;26.68;100162.31;6215976;28;20059;-76
2022/05/15 14:00:25;;;;;;;5.13;1.83;;;;;;;26.19;27.59;100161.91;6223649;28;20049;-76
2022/05/15 14:03:32;;;;;;;3.90;1.80;;;;;;;26.18;26.62;100146.91;6216842;28;20414;-76
2022/05/15 14:06:43;;;;;;;7.60;1.92;;;;;;;26.01;28.44;100149.84;6220890;28;20111;-77
2022/05/15 14:09:49;;;;;;;8.75;1.90;;;;;;;26.28;28.18;100144.72;6220972;28;20573;-76
2022/05/15 14:13:01;;;;;;;6.28;2.00;;;;;;;26.41;27.22;100135.97;6221832;28;20050;-76
2022/05/15 14:16:17;;;;;;;7.18;1.80;;;;;;;26.36;28.05;100139.22;6221179;28;20049;-76
2022/05/15 14:19:20;;;;;;;4.75;1.85;;;;;;;26.24;28.24;100130.91;6237421;28;20414;-76
2022/05/15 14:22:21;;;;;;;5.38;1.80;;;;;;;25.83;27.44;100131.56;6205419;28;20473;-76
2022/05/15 14:25:22;;;;;;;6.03;1.75;;;;;;;26.05;27.78;100127.06;6243312;28;20536;-76
2022/05/15 14:28:24;;;;;;;3.47;1.75;;;;;;;26.03;27.73;100123.75;6228906;28;20482;-73
2022/05/15 14:31:28;;;;;;;6.65;1.70;;;;;;;26.29;27.21;100122.28;6212368;28;20045;-73
2022/05/15 14:34:29;;;;;;;4.03;1.60;;;;;;;26.20;27.06;100126.97;6229137;28;20085;-73
2022/05/15 14:37:30;;;;;;;2.78;1.50;;;;;;;25.85;26.98;100126.03;6212382;28;20065;-74
2022/05/15 14:40:31;;;;;;;4.28;1.88;;;;;;;25.94;29.51;100119.53;6244979;28;20167;-73
2022/05/15 14:43:35;;;;;;;5.60;1.80;;;;;;;26.07;28.15;100121.53;6228477;28;20049;-76